Terminal Aerodrome Forecast
Issued by NWS Paducah, KY

Home | Current Version | Previous Version | Text Only | Print | Product List | Glossary Off
Versions: 1 2 3 4 5 6 7 8 9 10 11 12 13 14

912
FTUS43 KPAH 232322
TAFPAH
TAF
KPAH 232322Z 2400/2424 VRB03KT P6SM SCT250
     FM240900 00000KT 2SM BR SCT200
     FM241300 VRB03KT P6SM SCT030=

USA.gov is the U.S. government's official web portal to all federal, state and local government web resources and services.